Time;durP1;ratioP1;P1;durP2;ratioP2;P2;SDS_P1;SDS_P2;PMS_P1;PMS_P2;Temp;Humidity;BMP_temperature;BMP_pressure;BME280_temperature;BME280_humidity;BME280_pressure;Samples;Min_cycle;Max_cycle;Signal;HPM_P1;HPM_P2
2022/08/28 00:01:09;;;;;;;9.60;8.70;;;23.60;65.90;;;;;;5036092;28;20235;-71
2022/08/28 00:03:36;;;;;;;9.15;8.35;;;23.60;65.90;;;;;;5036126;28;20249;-72
2022/08/28 00:06:03;;;;;;;9.05;8.15;;;23.60;66.80;;;;;;5036363;28;20215;-72
2022/08/28 00:08:30;;;;;;;9.20;8.30;;;23.60;65.90;;;;;;5036456;28;20204;-72
2022/08/28 00:10:58;;;;;;;8.95;8.15;;;23.60;65.90;;;;;;5036430;28;20691;-72
2022/08/28 00:13:26;;;;;;;9.60;8.80;;;23.60;65.90;;;;;;5036516;28;20200;-72
2022/08/28 00:15:55;;;;;;;9.00;8.25;;;23.50;65.70;;;;;;5036712;28;20195;-72
2022/08/28 00:18:22;;;;;;;8.98;8.07;;;23.50;65.70;;;;;;5037389;28;20199;-72
2022/08/28 00:20:49;;;;;;;9.23;8.43;;;23.50;65.70;;;;;;5040276;28;20628;-72
2022/08/28 00:23:16;;;;;;;8.57;7.78;;;23.50;65.80;;;;;;5036338;28;20199;-72
2022/08/28 00:25:43;;;;;;;9.13;8.23;;;23.50;65.70;;;;;;5036029;28;20203;-72
2022/08/28 00:28:11;;;;;;;8.65;7.93;;;23.50;65.80;;;;;;5035813;28;20661;-72
2022/08/28 00:30:39;;;;;;;9.10;8.20;;;23.50;65.70;;;;;;5053526;28;20214;-72
2022/08/28 00:33:07;;;;;;;9.20;8.50;;;23.50;65.80;;;;;;5035021;28;20194;-72
2022/08/28 00:35:35;;;;;;;8.80;8.00;;;23.50;66.60;;;;;;5035761;28;20253;-72
2022/08/28 00:38:02;;;;;;;8.50;7.70;;;23.50;65.80;;;;;;5035806;28;20196;-72
2022/08/28 00:40:29;;;;;;;8.80;8.00;;;23.50;65.70;;;;;;5035609;28;20302;-72
2022/08/28 00:42:56;;;;;;;8.75;7.95;;;23.50;65.80;;;;;;5035644;28;20219;-72
2022/08/28 00:45:25;;;;;;;8.48;7.63;;;23.50;65.70;;;;;;5053616;28;20188;-72
2022/08/28 00:47:52;;;;;;;8.38;7.57;;;23.50;65.70;;;;;;5035777;28;20256;-72
2022/08/28 00:50:21;;;;;;;8.65;7.65;;;23.50;65.70;;;;;;5053426;28;20576;-72
2022/08/28 00:52:49;;;;;;;8.27;7.50;;;23.50;65.70;;;;;;5035870;28;20286;-72
2022/08/28 00:55:17;;;;;;;7.88;7.18;;;23.50;65.70;;;;;;5036208;28;20217;-71
2022/08/28 00:57:47;;;;;;;7.55;6.95;;;23.50;65.70;;;;;;5035824;28;20199;-71
2022/08/28 01:00:17;;;;;;;8.93;7.50;;;23.50;65.70;;;;;;5035714;28;20230;-71
2022/08/28 01:02:46;;;;;;;7.63;7.00;;;23.50;65.60;;;;;;5036070;28;20207;-71
2022/08/28 01:05:14;;;;;;;8.30;7.57;;;23.50;65.60;;;;;;5019566;28;20756;-71
2022/08/28 01:07:41;;;;;;;7.63;7.00;;;23.50;65.60;;;;;;5035736;28;20282;-71
2022/08/28 01:10:09;;;;;;;8.38;7.65;;;23.50;65.50;;;;;;5053487;28;20298;-71
2022/08/28 01:12:37;;;;;;;7.55;6.95;;;23.50;65.50;;;;;;5035433;28;20278;-71
2022/08/28 01:15:08;;;;;;;7.60;7.00;;;23.40;65.40;;;;;;5036294;28;20203;-71
2022/08/28 01:17:35;;;;;;;7.97;7.30;;;23.50;65.50;;;;;;5020249;28;20201;-71
2022/08/28 01:20:06;;;;;;;7.82;7.20;;;23.50;65.50;;;;;;5035463;28;20701;-71
2022/08/28 01:22:36;;;;;;;7.68;7.07;;;23.50;65.50;;;;;;5035731;28;20234;-71
2022/08/28 01:25:05;;;;;;;7.75;7.15;;;23.50;65.50;;;;;;5035511;28;20287;-71
2022/08/28 01:27:32;;;;;;;7.90;7.30;;;23.50;65.40;;;;;;5019277;28;20196;-71
2022/08/28 01:29:59;;;;;;;7.88;7.18;;;23.40;65.20;;;;;;5035959;28;20219;-71
2022/08/28 01:32:28;;;;;;;7.32;6.72;;;23.40;65.30;;;;;;5035533;28;20223;-71
2022/08/28 01:34:56;;;;;;;7.45;6.85;;;23.40;65.30;;;;;;5035965;28;20195;-71
2022/08/28 01:37:23;;;;;;;7.55;6.95;;;23.40;65.20;;;;;;5019293;28;20270;-71
2022/08/28 01:39:50;;;;;;;8.20;7.50;;;23.50;65.30;;;;;;5036944;28;20219;-71
2022/08/28 01:42:19;;;;;;;8.07;7.47;;;23.40;65.20;;;;;;5022506;28;20215;-71
2022/08/28 01:44:46;;;;;;;7.80;7.10;;;23.40;65.20;;;;;;5038030;28;20203;-71
2022/08/28 01:47:13;;;;;;;6.90;6.40;;;23.50;65.30;;;;;;5038699;28;20250;-71
2022/08/28 01:49:40;;;;;;;7.45;6.85;;;23.50;65.30;;;;;;5038737;28;20199;-71
2022/08/28 01:52:08;;;;;;;7.53;6.93;;;23.40;65.10;;;;;;5038602;28;20191;-71
2022/08/28 01:54:35;;;;;;;7.38;6.68;;;23.40;65.10;;;;;;5038708;28;20654;-71
2022/08/28 01:57:02;;;;;;;7.57;6.88;;;23.40;65.10;;;;;;5038472;28;20218;-71
2022/08/28 01:59:32;;;;;;;7.60;6.90;;;23.50;65.20;;;;;;5038412;28;20280;-71
2022/08/28 02:01:59;;;;;;;7.43;6.82;;;23.40;65.10;;;;;;5038540;28;20272;-71
2022/08/28 02:04:26;;;;;;;7.38;6.65;;;23.40;65.10;;;;;;5056392;28;20192;-71
2022/08/28 02:06:54;;;;;;;7.10;6.50;;;23.40;65.10;;;;;;5056046;28;20192;-71
2022/08/28 02:09:21;;;;;;;6.78;6.18;;;23.50;65.20;;;;;;5038323;28;20199;-71
2022/08/28 02:11:48;;;;;;;7.43;6.72;;;23.40;65.10;;;;;;5038285;28;20215;-71
2022/08/28 02:14:15;;;;;;;6.93;6.22;;;23.40;65.10;;;;;;5021825;28;20298;-70
2022/08/28 02:16:43;;;;;;;7.10;6.50;;;23.40;65.10;;;;;;5038944;28;20198;-71
2022/08/28 02:19:11;;;;;;;7.00;6.40;;;23.40;65.10;;;;;;5038923;28;20195;-71
2022/08/28 02:21:39;;;;;;;7.20;6.50;;;23.40;65.00;;;;;;5038206;28;20306;-71
2022/08/28 02:24:06;;;;;;;6.88;6.28;;;23.40;65.10;;;;;;5037893;28;20199;-71
2022/08/28 02:26:33;;;;;;;6.95;6.35;;;23.40;65.00;;;;;;5038118;28;20195;-72
2022/08/28 02:29:00;;;;;;;6.50;6.00;;;23.40;65.00;;;;;;5038048;28;20215;-72
2022/08/28 02:31:27;;;;;;;6.82;6.22;;;23.50;65.10;;;;;;5022992;28;20215;-72
2022/08/28 02:33:55;;;;;;;7.05;6.43;;;23.40;65.00;;;;;;5055988;28;20199;-72
2022/08/28 02:36:23;;;;;;;6.88;6.25;;;23.40;65.00;;;;;;5037932;28;20221;-72
2022/08/28 02:38:51;;;;;;;6.50;6.00;;;23.40;65.00;;;;;;5037739;28;20650;-72
2022/08/28 02:41:17;;;;;;;6.85;6.32;;;23.50;65.10;;;;;;5037670;28;20219;-72
2022/08/28 02:43:44;;;;;;;6.63;6.13;;;23.40;64.90;;;;;;5037930;28;20230;-72
2022/08/28 02:46:11;;;;;;;6.55;6.05;;;23.50;65.00;;;;;;5037416;28;20199;-72
2022/08/28 02:48:41;;;;;;;6.28;5.78;;;23.40;64.80;;;;;;5037548;28;20249;-72
2022/08/28 02:51:12;;;;;;;6.15;5.75;;;23.40;64.90;;;;;;5037421;28;20224;-72
2022/08/28 02:53:39;;;;;;;6.50;6.00;;;23.50;65.00;;;;;;5055596;28;20179;-72
2022/08/28 02:56:06;;;;;;;6.47;5.95;;;23.50;64.90;;;;;;5036876;28;20187;-72
2022/08/28 02:58:34;;;;;;;6.80;6.10;;;23.40;64.80;;;;;;5037179;28;20211;-72
2022/08/28 03:01:02;;;;;;;6.40;5.90;;;23.40;64.70;;;;;;5021735;28;20222;-72
2022/08/28 03:03:29;;;;;;;6.18;5.68;;;23.50;64.90;;;;;;5037660;28;20261;-72
2022/08/28 03:05:56;;;;;;;6.90;6.28;;;23.40;64.70;;;;;;5037382;28;20199;-72
2022/08/28 03:08:25;;;;;;;6.60;6.10;;;23.50;64.80;;;;;;5037059;28;20223;-72
2022/08/28 03:10:52;;;;;;;6.50;6.00;;;23.40;64.90;;;;;;5037429;28;20225;-72
2022/08/28 03:13:19;;;;;;;6.55;6.05;;;23.50;65.30;;;;;;5054869;28;20202;-72
2022/08/28 03:15:46;;;;;;;6.38;5.88;;;23.50;65.30;;;;;;5036899;28;20677;-72
2022/08/28 03:18:13;;;;;;;6.03;5.55;;;23.50;65.50;;;;;;5020795;28;20191;-72
2022/08/28 03:20:40;;;;;;;6.85;6.10;;;23.50;65.10;;;;;;5037001;28;20261;-71
2022/08/28 03:25:53;;;;;;;6.45;5.85;;;23.60;64.70;;;;;;5036982;28;20248;-71
2022/08/28 03:28:20;;;;;;;5.97;5.55;;;23.70;64.50;;;;;;5054806;28;20187;-71
2022/08/28 03:30:48;;;;;;;6.00;5.60;;;23.70;64.30;;;;;;5036659;28;20615;-71
2022/08/28 03:33:15;;;;;;;6.10;5.60;;;23.70;64.00;;;;;;5036764;28;20199;-71
2022/08/28 03:35:42;;;;;;;6.10;5.60;;;23.80;63.90;;;;;;5037222;28;20206;-71
2022/08/28 03:38:10;;;;;;;5.80;5.40;;;23.90;64.50;;;;;;5036779;28;20210;-71
2022/08/28 03:40:39;;;;;;;6.28;5.78;;;23.90;63.40;;;;;;5037267;28;20631;-71
2022/08/28 03:43:09;;;;;;;5.95;5.45;;;24.00;63.40;;;;;;5036390;28;20223;-71
2022/08/28 03:45:36;;;;;;;5.80;5.40;;;24.00;63.10;;;;;;5020378;28;20199;-71
2022/08/28 03:48:03;;;;;;;5.85;5.35;;;24.00;62.90;;;;;;5054389;28;20191;-71
2022/08/28 03:50:31;;;;;;;5.65;5.25;;;24.10;62.90;;;;;;5036556;28;20315;-71
2022/08/28 03:52:58;;;;;;;5.57;5.18;;;24.10;62.90;;;;;;5037601;28;20286;-71
2022/08/28 03:55:25;;;;;;;5.20;4.80;;;24.10;62.80;;;;;;5054766;28;20192;-71
2022/08/28 03:57:52;;;;;;;6.13;5.65;;;24.10;62.80;;;;;;5036206;28;20211;-71
2022/08/28 04:00:20;;;;;;;5.38;4.97;;;24.10;62.60;;;;;;5036193;28;20586;-71
2022/08/28 04:02:47;;;;;;;5.10;4.80;;;24.20;62.80;;;;;;5035980;28;20212;-71
2022/08/28 04:05:17;;;;;;;5.50;5.10;;;24.10;62.60;;;;;;5036169;28;20199;-72
2022/08/28 04:07:44;;;;;;;5.88;5.38;;;24.20;62.70;;;;;;5035159;28;20650;-72
2022/08/28 04:10:11;;;;;;;5.10;4.70;;;24.20;62.60;;;;;;5035971;28;20223;-72
2022/08/28 04:12:39;;;;;;;5.50;5.10;;;24.20;62.50;;;;;;5035949;28;20215;-72
2022/08/28 04:15:07;;;;;;;5.00;4.60;;;24.20;62.40;;;;;;5054198;28;20196;-71
2022/08/28 04:17:36;;;;;;;5.20;4.80;;;24.20;62.50;;;;;;5035943;28;20241;-71
2022/08/28 04:20:04;;;;;;;5.68;5.18;;;24.20;62.30;;;;;;5035802;28;20774;-71
2022/08/28 04:22:31;;;;;;;5.50;5.10;;;24.20;62.30;;;;;;5019645;28;20294;-71
2022/08/28 04:24:58;;;;;;;5.32;4.95;;;24.20;62.30;;;;;;5053845;28;20191;-71
2022/08/28 04:27:26;;;;;;;4.85;4.55;;;24.20;62.40;;;;;;5053670;28;20199;-71
2022/08/28 04:29:53;;;;;;;5.72;5.32;;;24.20;62.50;;;;;;5035854;28;20203;-71
2022/08/28 04:32:21;;;;;;;4.68;4.35;;;24.20;62.30;;;;;;5036133;28;20195;-71
2022/08/28 04:34:49;;;;;;;5.40;4.90;;;24.20;62.30;;;;;;5035996;28;20206;-71
2022/08/28 04:37:16;;;;;;;5.50;5.10;;;24.20;62.30;;;;;;5036120;28;20569;-71
2022/08/28 04:39:43;;;;;;;5.07;4.75;;;24.20;62.40;;;;;;5053958;28;20198;-71
2022/08/28 04:42:10;;;;;;;4.57;4.28;;;24.10;62.50;;;;;;5036807;28;20191;-71
2022/08/28 04:44:38;;;;;;;4.75;4.35;;;24.10;62.30;;;;;;5036500;28;20249;-71
2022/08/28 04:47:05;;;;;;;4.95;4.55;;;24.10;62.50;;;;;;5044979;28;20206;-71
2022/08/28 04:49:32;;;;;;;4.88;4.47;;;24.10;62.40;;;;;;5041365;28;20199;-71
2022/08/28 04:52:00;;;;;;;4.90;4.47;;;24.10;62.50;;;;;;5036766;28;20219;-71
2022/08/28 04:54:27;;;;;;;5.05;4.65;;;24.10;62.40;;;;;;5036270;28;20195;-71
2022/08/28 04:56:54;;;;;;;4.95;4.55;;;24.10;62.50;;;;;;5036749;28;20247;-71
2022/08/28 04:59:22;;;;;;;5.00;4.60;;;24.10;62.30;;;;;;5036326;28;20223;-72
2022/08/28 05:01:50;;;;;;;4.70;4.40;;;24.10;62.40;;;;;;5019395;28;20689;-72
2022/08/28 05:04:18;;;;;;;4.57;4.28;;;24.10;62.30;;;;;;5019409;28;20686;-72
2022/08/28 05:06:45;;;;;;;4.70;4.30;;;24.10;62.40;;;;;;5035569;28;20605;-72
2022/08/28 05:09:14;;;;;;;5.00;4.60;;;24.10;62.30;;;;;;5035528;28;20195;-72
2022/08/28 05:11:41;;;;;;;5.13;4.72;;;24.10;62.30;;;;;;5035389;28;20567;-72
2022/08/28 05:14:09;;;;;;;4.45;4.15;;;24.20;62.30;;;;;;5035672;28;20661;-72
2022/08/28 05:16:41;;;;;;;4.97;4.57;;;24.20;62.40;;;;;;5035332;28;20248;-73
2022/08/28 05:19:09;;;;;;;5.00;4.70;;;24.10;62.30;;;;;;5037881;28;20203;-73
2022/08/28 05:21:36;;;;;;;4.85;4.45;;;24.10;62.20;;;;;;5039705;28;20215;-73
2022/08/28 05:24:03;;;;;;;4.78;4.28;;;24.10;62.30;;;;;;5040227;28;20230;-73
2022/08/28 05:26:31;;;;;;;4.43;4.13;;;24.10;62.30;;;;;;5039091;28;20277;-73
2022/08/28 05:28:59;;;;;;;4.68;4.30;;;24.10;62.40;;;;;;5039000;28;20192;-73
2022/08/28 05:31:27;;;;;;;4.30;4.00;;;24.10;62.50;;;;;;5040036;28;20581;-72
2022/08/28 05:33:54;;;;;;;4.35;4.05;;;24.00;62.30;;;;;;5040499;28;20654;-72
2022/08/28 05:36:22;;;;;;;4.57;4.28;;;24.00;62.40;;;;;;5039139;28;20249;-73
2022/08/28 05:38:50;;;;;;;4.20;3.90;;;24.00;62.50;;;;;;5039283;28;20200;-73
2022/08/28 05:41:19;;;;;;;4.88;4.57;;;24.00;62.50;;;;;;5038783;28;20223;-73
2022/08/28 05:43:47;;;;;;;4.55;4.25;;;24.00;62.70;;;;;;5038644;28;20227;-73
2022/08/28 05:46:16;;;;;;;4.60;4.30;;;24.00;62.70;;;;;;5039097;28;20227;-73
2022/08/28 05:48:44;;;;;;;4.60;4.28;;;24.00;62.70;;;;;;5038668;28;20202;-73
2022/08/28 05:51:13;;;;;;;4.90;4.60;;;24.00;62.80;;;;;;5038426;28;20235;-73
2022/08/28 05:53:41;;;;;;;4.47;4.18;;;24.00;63.60;;;;;;5038728;28;20600;-73
2022/08/28 05:56:08;;;;;;;4.20;3.90;;;24.00;62.80;;;;;;5038573;28;20273;-72
2022/08/28 05:58:36;;;;;;;4.38;4.07;;;24.00;62.80;;;;;;5056295;28;20204;-72
2022/08/28 06:01:09;;;;;;;4.35;4.05;;;24.00;62.80;;;;;;5039068;28;20581;-72
2022/08/28 06:03:37;;;;;;;4.60;4.30;;;24.00;62.80;;;;;;5038322;28;20216;-72
2022/08/28 06:06:04;;;;;;;4.63;4.32;;;24.00;62.80;;;;;;5038326;28;20203;-71
2022/08/28 06:08:31;;;;;;;4.72;4.32;;;24.00;62.80;;;;;;5038252;28;20205;-71
2022/08/28 06:10:59;;;;;;;4.65;4.35;;;24.00;62.80;;;;;;5038480;28;20763;-71
2022/08/28 06:13:26;;;;;;;4.82;4.53;;;24.00;62.70;;;;;;5038283;28;20565;-71
2022/08/28 06:15:54;;;;;;;4.65;4.35;;;24.00;62.70;;;;;;5038200;28;20199;-71
2022/08/28 06:18:22;;;;;;;4.47;4.13;;;24.00;63.40;;;;;;5038059;28;20204;-71
2022/08/28 06:20:49;;;;;;;4.18;3.88;;;24.00;62.60;;;;;;5038141;28;20759;-71
2022/08/28 06:23:18;;;;;;;4.50;4.10;;;24.00;62.60;;;;;;5037804;28;20215;-71
2022/08/28 06:25:47;;;;;;;4.32;4.03;;;24.00;62.50;;;;;;5037931;28;20282;-71
2022/08/28 06:28:16;;;;;;;4.50;4.10;;;24.00;62.60;;;;;;5037767;28;20202;-71
2022/08/28 06:30:43;;;;;;;4.38;3.97;;;24.00;62.50;;;;;;5054710;28;20289;-72
2022/08/28 06:33:11;;;;;;;4.60;4.20;;;24.00;62.40;;;;;;5037768;28;20295;-72
2022/08/28 06:35:42;;;;;;;4.30;4.00;;;24.10;62.50;;;;;;5037957;28;20650;-72
2022/08/28 06:38:09;;;;;;;4.47;4.10;;;24.00;62.30;;;;;;5037732;28;20281;-72
2022/08/28 06:40:40;;;;;;;4.50;4.20;;;24.00;62.20;;;;;;5037748;28;20212;-72
2022/08/28 06:43:07;;;;;;;4.35;4.05;;;24.00;62.20;;;;;;5037819;28;20216;-72
2022/08/28 06:45:34;;;;;;;4.25;3.95;;;24.10;62.20;;;;;;5037603;28;20205;-72
2022/08/28 06:48:02;;;;;;;4.13;3.83;;;24.10;62.20;;;;;;5021202;28;20207;-72
2022/08/28 06:50:29;;;;;;;4.00;3.70;;;24.10;62.20;;;;;;5038006;28;20673;-72
2022/08/28 06:52:57;;;;;;;4.20;3.90;;;24.10;62.10;;;;;;5038153;28;20718;-72
2022/08/28 06:55:24;;;;;;;4.05;3.80;;;24.10;62.10;;;;;;5056508;28;20650;-71
2022/08/28 06:57:51;;;;;;;4.55;4.15;;;24.10;62.00;;;;;;5055293;28;20199;-71
2022/08/28 07:00:18;;;;;;;3.75;3.55;;;24.20;62.00;;;;;;5037286;28;20226;-71
2022/08/28 07:02:45;;;;;;;4.18;3.88;;;24.20;61.90;;;;;;5037374;28;20203;-71
2022/08/28 07:05:13;;;;;;;4.50;4.20;;;24.20;61.90;;;;;;5037369;28;20322;-71
2022/08/28 07:07:40;;;;;;;4.15;3.85;;;24.20;61.70;;;;;;5037478;28;20221;-71
2022/08/28 07:10:09;;;;;;;4.22;3.92;;;24.20;61.70;;;;;;5037154;28;20215;-72
2022/08/28 07:12:36;;;;;;;4.20;3.90;;;24.30;61.70;;;;;;5036991;28;20203;-72
2022/08/28 07:15:04;;;;;;;4.80;4.50;;;24.20;61.50;;;;;;5037022;28;20250;-72
2022/08/28 07:17:31;;;;;;;4.43;4.13;;;24.20;61.50;;;;;;5036791;28;20290;-72
2022/08/28 07:19:58;;;;;;;4.25;3.95;;;24.20;61.50;;;;;;5036886;28;20661;-72
2022/08/28 07:22:26;;;;;;;3.92;3.63;;;24.30;61.50;;;;;;5055012;28;20190;-72
2022/08/28 07:24:53;;;;;;;4.53;4.22;;;24.30;61.40;;;;;;5054616;28;20215;-72
2022/08/28 07:27:23;;;;;;;4.32;3.92;;;24.30;61.40;;;;;;5038092;28;20268;-72
2022/08/28 07:29:51;;;;;;;4.15;3.85;;;24.40;61.30;;;;;;5037625;28;20206;-72
2022/08/28 07:32:20;;;;;;;4.28;3.97;;;24.40;61.10;;;;;;5036790;28;20666;-72
2022/08/28 07:34:47;;;;;;;4.63;4.22;;;24.50;61.00;;;;;;5036729;28;20290;-72
2022/08/28 07:37:14;;;;;;;4.10;3.80;;;24.50;60.80;;;;;;5036849;28;20561;-72
2022/08/28 07:39:41;;;;;;;4.60;4.20;;;24.50;60.70;;;;;;5020236;28;20287;-72
2022/08/28 07:42:09;;;;;;;4.50;4.20;;;24.50;60.70;;;;;;5036687;28;20210;-72
2022/08/28 07:44:48;;;;;;;4.50;4.20;;;24.50;60.50;;;;;;5020540;28;20215;-72
2022/08/28 07:47:15;;;;;;;4.22;3.92;;;24.50;60.40;;;;;;5036749;28;20184;-72
2022/08/28 07:49:43;;;;;;;4.40;4.10;;;24.60;60.50;;;;;;5036775;28;20195;-73
2022/08/28 07:52:09;;;;;;;4.57;4.20;;;24.60;60.50;;;;;;5037553;28;20249;-72
2022/08/28 07:54:39;;;;;;;4.30;4.00;;;24.60;60.40;;;;;;5025015;28;20231;-73
2022/08/28 07:57:07;;;;;;;4.75;4.28;;;24.60;60.40;;;;;;5056918;28;20192;-73
2022/08/28 07:59:34;;;;;;;4.35;4.05;;;24.60;60.30;;;;;;5020781;28;20203;-73
2022/08/28 08:02:03;;;;;;;4.45;4.15;;;24.60;60.20;;;;;;5037190;28;20547;-73
2022/08/28 08:04:30;;;;;;;4.32;4.03;;;24.60;60.10;;;;;;5036982;28;20302;-73
2022/08/28 08:06:57;;;;;;;4.32;4.03;;;24.70;60.20;;;;;;5036533;28;20650;-73
2022/08/28 08:09:24;;;;;;;4.30;4.00;;;24.70;60.10;;;;;;5036927;28;20199;-73
2022/08/28 08:11:52;;;;;;;3.95;3.65;;;24.70;60.00;;;;;;5003785;28;20268;-73
2022/08/28 08:14:19;;;;;;;4.22;3.92;;;24.70;60.00;;;;;;5020050;28;20199;-73
2022/08/28 08:16:47;;;;;;;4.45;4.10;;;24.80;59.80;;;;;;5036452;28;20191;-73
2022/08/28 08:19:15;;;;;;;4.60;4.20;;;24.80;59.60;;;;;;5036232;28;20662;-73
2022/08/28 08:21:43;;;;;;;4.50;4.20;;;24.90;59.60;;;;;;5053794;28;20290;-72
2022/08/28 08:24:11;;;;;;;4.20;3.90;;;24.90;59.60;;;;;;5035798;28;20239;-72
2022/08/28 08:26:44;;;;;;;4.72;4.18;;;24.90;59.40;;;;;;5019494;28;20207;-72
2022/08/28 08:29:12;;;;;;;4.45;4.15;;;24.90;59.40;;;;;;5036079;28;20272;-72
2022/08/28 08:31:39;;;;;;;4.32;4.03;;;25.00;59.40;;;;;;5019834;28;20246;-72
2022/08/28 08:34:06;;;;;;;4.32;4.03;;;25.00;59.30;;;;;;5036180;28;20570;-72
2022/08/28 08:36:36;;;;;;;4.40;4.10;;;25.00;59.30;;;;;;5035842;28;20249;-72
2022/08/28 08:39:03;;;;;;;4.20;3.90;;;25.10;59.30;;;;;;5036077;28;20199;-72
2022/08/28 08:41:32;;;;;;;4.35;4.05;;;25.10;59.30;;;;;;5035765;28;20666;-72
2022/08/28 08:44:01;;;;;;;4.40;4.00;;;25.10;59.20;;;;;;5054295;28;20203;-72
2022/08/28 08:46:32;;;;;;;4.35;4.05;;;25.10;59.10;;;;;;5035803;28;20194;-72
2022/08/28 08:49:01;;;;;;;4.60;4.30;;;25.20;58.90;;;;;;5054148;28;20182;-72
2022/08/28 08:51:39;;;;;;;4.47;4.18;;;25.20;58.80;;;;;;5035848;28;20705;-74
2022/08/28 08:54:08;;;;;;;4.25;3.95;;;25.30;58.70;;;;;;5038027;28;20226;-73
2022/08/28 08:56:35;;;;;;;4.15;3.85;;;25.30;58.60;;;;;;5040018;28;20191;-73
2022/08/28 08:59:03;;;;;;;4.05;3.75;;;25.30;58.40;;;;;;5040154;28;20207;-73
2022/08/28 09:01:32;;;;;;;4.53;4.15;;;25.30;58.50;;;;;;5040157;28;20230;-73
2022/08/28 09:04:02;;;;;;;4.20;3.90;;;25.30;58.50;;;;;;5041313;28;20241;-73
2022/08/28 09:06:33;;;;;;;4.30;4.00;;;25.30;58.40;;;;;;5044596;28;20199;-73
2022/08/28 09:09:03;;;;;;;4.47;4.15;;;25.30;58.40;;;;;;5041997;28;20202;-73
2022/08/28 09:11:37;;;;;;;4.50;4.10;;;25.30;58.40;;;;;;5040695;28;20219;-72
2022/08/28 09:14:08;;;;;;;4.30;4.00;;;25.30;58.40;;;;;;5040710;28;20195;-72
2022/08/28 09:16:37;;;;;;;4.15;3.85;;;25.40;58.50;;;;;;5039535;28;20202;-72
2022/08/28 09:19:04;;;;;;;4.65;4.25;;;25.40;58.40;;;;;;5039384;28;20594;-73
2022/08/28 09:21:32;;;;;;;4.70;4.40;;;25.40;58.30;;;;;;5057000;28;20215;-73
2022/08/28 09:24:03;;;;;;;4.03;3.72;;;25.50;58.30;;;;;;5056997;28;20191;-73
2022/08/28 09:26:30;;;;;;;3.97;3.67;;;25.50;57.90;;;;;;5039317;28;20287;-73
2022/08/28 09:29:01;;;;;;;4.18;3.88;;;25.70;57.80;;;;;;5039047;28;20195;-73
2022/08/28 09:31:34;;;;;;;4.13;3.83;;;25.70;57.50;;;;;;5038870;28;20221;-73
2022/08/28 09:34:19;;;;;;;4.13;3.83;;;25.80;57.40;;;;;;5040860;28;20202;-73
2022/08/28 09:36:46;;;;;;;4.07;3.78;;;25.90;57.10;;;;;;5039054;28;20234;-72
2022/08/28 09:39:17;;;;;;;4.20;3.90;;;25.90;57.00;;;;;;5057016;28;20324;-73
2022/08/28 09:44:59;;;;;;;4.72;4.28;;;26.00;56.80;;;;;;5038792;28;20807;-73
2022/08/28 09:47:44;;;;;;;4.28;3.97;;;26.00;56.80;;;;;;5038918;28;20192;-73
2022/08/28 09:50:17;;;;;;;6.10;5.50;;;25.90;57.10;;;;;;5039436;28;20223;-72
2022/08/28 09:52:45;;;;;;;9.38;8.48;;;25.90;58.00;;;;;;5038554;28;20219;-72
2022/08/28 09:55:18;;;;;;;10.13;8.32;;;25.80;59.20;;;;;;5038528;28;20680;-72
2022/08/28 09:57:45;;;;;;;10.45;9.38;;;25.70;60.20;;;;;;5039002;28;20191;-72
2022/08/28 10:00:13;;;;;;;8.73;7.80;;;25.60;61.60;;;;;;5039553;28;20250;-72
2022/08/28 10:02:43;;;;;;;9.23;7.70;;;25.60;61.10;;;;;;5038769;28;20212;-73
2022/08/28 10:05:15;;;;;;;8.57;7.68;;;25.60;60.50;;;;;;5038458;28;20226;-72
2022/08/28 10:07:45;;;;;;;8.32;7.57;;;25.60;59.80;;;;;;5038516;28;20202;-72
2022/08/28 10:10:34;;;;;;;8.63;7.78;;;25.60;59.50;;;;;;5038427;28;20223;-72
2022/08/28 10:13:06;;;;;;;10.15;8.70;;;25.70;60.60;;;;;;5038741;28;20204;-73
2022/08/28 10:15:44;;;;;;;9.02;7.47;;;25.70;61.10;;;;;;5038451;28;20187;-72
2022/08/28 10:18:18;;;;;;;11.27;8.45;;;25.60;60.70;;;;;;5038112;28;20192;-72
2022/08/28 10:20:49;;;;;;;10.93;8.75;;;25.60;60.20;;;;;;5038064;28;20230;-72
2022/08/28 10:23:19;;;;;;;9.70;8.60;;;25.60;61.10;;;;;;5037363;28;20203;-72
2022/08/28 10:25:49;;;;;;;9.68;8.68;;;25.60;61.40;;;;;;5053311;28;20757;-72
2022/08/28 10:28:32;;;;;;;9.43;8.05;;;25.50;61.90;;;;;;5053429;28;20195;-72
2022/08/28 10:31:01;;;;;;;8.30;7.60;;;25.50;61.70;;;;;;5031500;28;20227;-73
2022/08/28 10:33:35;;;;;;;9.07;8.25;;;25.50;62.00;;;;;;5018226;28;20686;-73
2022/08/28 10:36:04;;;;;;;8.75;7.85;;;25.50;61.40;;;;;;5036017;28;20249;-73
2022/08/28 10:38:35;;;;;;;8.48;7.47;;;25.50;60.70;;;;;;5021201;28;20286;-72
2022/08/28 10:41:06;;;;;;;8.40;7.28;;;25.50;61.00;;;;;;5036933;28;20253;-72
2022/08/28 10:43:34;;;;;;;9.10;7.20;;;25.60;60.90;;;;;;5054802;28;20172;-72
2022/08/28 10:46:03;;;;;;;11.23;6.68;;;25.60;61.40;;;;;;5036947;28;20230;-71
2022/08/28 10:48:33;;;;;;;7.78;6.97;;;25.70;61.30;;;;;;5037340;28;20194;-70
2022/08/28 10:51:01;;;;;;;7.60;6.90;;;25.80;60.50;;;;;;5037725;28;20631;-70
2022/08/28 10:53:30;;;;;;;8.65;7.07;;;25.90;59.80;;;;;;5037253;28;20206;-70
2022/08/28 10:55:58;;;;;;;7.85;7.15;;;25.90;59.50;;;;;;5037432;28;20195;-70
2022/08/28 10:58:27;;;;;;;7.40;6.63;;;25.90;59.00;;;;;;5037423;28;20211;-70
2022/08/28 11:00:55;;;;;;;8.02;6.55;;;26.00;59.00;;;;;;5021115;28;20210;-70
2022/08/28 11:03:22;;;;;;;7.18;6.57;;;26.00;59.00;;;;;;5037286;28;20199;-70
2022/08/28 11:05:50;;;;;;;7.20;6.50;;;26.10;59.00;;;;;;5037423;28;20219;-70
2022/08/28 11:08:24;;;;;;;7.90;6.93;;;26.10;59.80;;;;;;5038246;28;20230;-70
2022/08/28 11:10:51;;;;;;;9.80;7.10;;;26.10;58.80;;;;;;5038034;28;20604;-70
2022/08/28 11:13:48;;;;;;;7.10;6.38;;;26.10;58.80;;;;;;5051151;28;20573;-70
2022/08/28 11:16:20;;;;;;;7.13;6.53;;;26.10;58.70;;;;;;5021018;28;20683;-70
2022/08/28 11:19:09;;;;;;;7.72;6.60;;;26.10;56.60;;;;;;5037392;28;20217;-70
2022/08/28 11:21:36;;;;;;;9.80;6.25;;;26.10;56.80;;;;;;5057167;28;20230;-70
2022/08/28 11:24:05;;;;;;;6.40;5.85;;;26.10;57.10;;;;;;5057609;28;20198;-70
2022/08/28 11:26:39;;;;;;;7.63;5.90;;;26.20;57.10;;;;;;5056829;28;20244;-70
2022/08/28 11:29:07;;;;;;;7.03;6.38;;;26.20;57.00;;;;;;5074781;28;20175;-70
2022/08/28 11:31:37;;;;;;;6.30;5.70;;;26.20;57.10;;;;;;5074706;28;20707;-70
2022/08/28 11:34:05;;;;;;;7.30;6.25;;;26.20;57.80;;;;;;5037449;28;20571;-70
2022/08/28 11:37:05;;;;;;;8.10;6.05;;;26.30;57.20;;;;;;5037062;28;20201;-70
2022/08/28 11:39:32;;;;;;;6.20;5.60;;;26.40;57.00;;;;;;4996986;28;20189;-70
2022/08/28 11:42:34;;;;;;;6.72;6.13;;;26.40;57.00;;;;;;4993070;28;20243;-71
2022/08/28 11:45:02;;;;;;;8.07;7.28;;;26.50;55.90;;;;;;5002873;28;20222;-71
2022/08/28 11:47:55;;;;;;;6.85;6.15;;;26.50;55.90;;;;;;5036366;28;20198;-70
2022/08/28 11:50:30;;;;;;;7.00;6.30;;;26.50;56.20;;;;;;5053974;28;20222;-70
2022/08/28 11:53:17;;;;;;;7.00;6.40;;;26.60;56.30;;;;;;5054463;28;20199;-71
2022/08/28 11:56:20;;;;;;;6.70;6.10;;;26.60;56.30;;;;;;5054405;28;20198;-71
2022/08/28 11:58:52;;;;;;;6.72;6.13;;;26.60;56.20;;;;;;5053586;28;20228;-71
2022/08/28 12:01:28;;;;;;;6.60;5.93;;;26.60;56.10;;;;;;5053015;28;20219;-71
2022/08/28 12:03:55;;;;;;;6.13;5.55;;;26.60;56.00;;;;;;5053096;28;20194;-71
2022/08/28 12:09:41;;;;;;;7.63;5.93;;;26.60;56.30;;;;;;5014350;28;20248;-69
2022/08/28 12:12:13;;;;;;;6.25;5.65;;;26.60;56.30;;;;;;5032714;28;20186;-69
2022/08/28 12:15:07;;;;;;;6.43;5.63;;;26.60;56.00;;;;;;5017798;28;20188;-68
2022/08/28 12:17:47;;;;;;;7.10;5.72;;;26.60;56.40;;;;;;5013022;28;20215;-68
2022/08/28 12:20:24;;;;;;;6.97;6.10;;;26.60;56.20;;;;;;5007742;28;20658;-68
2022/08/28 12:22:56;;;;;;;7.50;6.35;;;26.60;56.30;;;;;;5016120;28;20203;-69
2022/08/28 12:25:27;;;;;;;8.80;6.63;;;26.60;56.00;;;;;;5032882;28;20234;-69
2022/08/28 12:27:54;;;;;;;7.30;5.85;;;26.60;56.60;;;;;;5032975;28;20211;-69
2022/08/28 12:30:29;;;;;;;6.03;5.47;;;26.70;56.00;;;;;;5015705;28;20201;-68
2022/08/28 12:33:01;;;;;;;7.55;6.10;;;26.60;55.70;;;;;;5032580;28;20193;-68
2022/08/28 12:35:28;;;;;;;6.07;5.50;;;26.60;56.00;;;;;;5034084;28;20328;-69
2022/08/28 12:38:02;;;;;;;6.30;5.57;;;26.60;56.10;;;;;;5039983;28;20620;-69
2022/08/28 12:40:30;;;;;;;6.72;5.70;;;26.60;54.30;;;;;;5034064;28;20199;-69
2022/08/28 12:42:58;;;;;;;6.10;5.22;;;26.50;55.00;;;;;;5016241;28;20199;-69
2022/08/28 12:45:37;;;;;;;7.85;5.80;;;26.50;55.10;;;;;;5015978;28;20246;-69
2022/08/28 12:48:10;;;;;;;5.55;5.07;;;26.50;55.70;;;;;;5033718;28;20179;-69
2022/08/28 12:50:38;;;;;;;6.82;6.13;;;26.50;55.30;;;;;;5033513;28;20261;-69
2022/08/28 12:53:06;;;;;;;6.10;5.50;;;26.50;55.10;;;;;;5015602;28;20203;-69
2022/08/28 12:55:33;;;;;;;6.28;5.60;;;26.50;55.10;;;;;;5015428;28;20631;-69
2022/08/28 12:58:00;;;;;;;6.78;5.97;;;26.50;55.10;;;;;;5015532;28;20204;-69
2022/08/28 13:00:30;;;;;;;6.07;5.22;;;26.50;55.10;;;;;;5015764;28;20204;-69
2022/08/28 13:02:57;;;;;;;6.30;5.70;;;26.50;55.10;;;;;;5015408;28;20568;-69
2022/08/28 13:05:33;;;;;;;6.05;5.53;;;26.60;55.20;;;;;;5015457;28;20223;-69